Time,TemperatureF,DewpointF,PressureIn,WindDirection,WindDirectionDegrees,WindSpeedMPH,WindSpeedGustMPH,Humidity,HourlyPrecipIn,Conditions,Clouds,dailyrainin,SolarRadiationWatts/m^2,SoftwareType,DateUTC
2013-02-20 00:15:00,-6.3,-12.0,30.47,WNW,292,6.0,8.0,75,0.00,,,0.00,0,weatherlink.com 1.10,2013-02-20 06:15:00,
2013-02-20 00:29:00,-6.3,-12.0,30.48,West,281,6.0,7.0,75,0.00,,,0.00,0,weatherlink.com 1.10,2013-02-20 06:29:00,
2013-02-20 00:45:00,-6.5,-12.0,30.48,WNW,288,7.0,9.0,75,0.00,,,0.00,0,weatherlink.com 1.10,2013-02-20 06:45:00,
2013-02-20 01:00:00,-6.7,-13.0,30.48,WNW,286,5.0,9.0,75,0.00,,,0.00,0,weatherlink.com 1.10,2013-02-20 07:00:00,
2013-02-20 01:14:00,-6.9,-13.0,30.49,WNW,294,6.0,9.0,75,0.00,,,0.00,0,weatherlink.com 1.10,2013-02-20 07:14:00,
2013-02-20 01:30:00,-6.9,-13.0,30.49,WNW,294,3.0,7.0,75,0.00,,,0.00,0,weatherlink.com 1.10,2013-02-20 07:30:00,
2013-02-20 01:45:00,-7.1,-13.0,30.50,WNW,286,1.0,8.0,75,0.00,,,0.00,0,weatherlink.com 1.10,2013-02-20 07:45:00,
2013-02-20 02:00:00,-7.3,-13.0,30.50,WNW,284,5.0,8.0,75,0.00,,,0.00,0,weatherlink.com 1.10,2013-02-20 08:00:00,
2013-02-20 02:15:00,-7.3,-13.0,30.51,WNW,286,0.0,7.0,75,0.00,,,0.00,0,weatherlink.com 1.10,2013-02-20 08:15:00,
2013-02-20 02:30:00,-7.5,-13.0,30.52,West,275,0.0,5.0,75,0.00,,,0.00,0,weatherlink.com 1.10,2013-02-20 08:30:00,
2013-02-20 02:45:00,-7.9,-14.0,30.51,West,277,5.0,6.0,75,0.00,,,0.00,0,weatherlink.com 1.10,2013-02-20 08:45:00,
2013-02-20 03:00:00,-8.6,-15.0,30.51,West,281,0.0,5.0,75,0.00,,,0.00,0,weatherlink.com 1.10,2013-02-20 09:00:00,
2013-02-20 03:15:00,-8.9,-15.0,30.52,West,281,5.0,7.0,76,0.00,,,0.00,0,weatherlink.com 1.10,2013-02-20 09:15:00,
2013-02-20 03:30:00,-8.9,-15.0,30.51,WNW,292,7.0,8.0,76,0.00,,,0.00,0,weatherlink.com 1.10,2013-02-20 09:30:00,
2013-02-20 03:45:00,-9.1,-15.0,30.51,WNW,299,0.0,5.0,76,0.00,,,0.00,0,weatherlink.com 1.10,2013-02-20 09:45:00,
2013-02-20 04:00:00,-9.3,-15.0,30.51,WNW,299,0.0,2.0,76,0.00,,,0.00,0,weatherlink.com 1.10,2013-02-20 10:00:00,
2013-02-20 04:15:00,-9.6,-15.0,30.52,WNW,300,0.0,0.0,76,0.00,,,0.00,0,weatherlink.com 1.10,2013-02-20 10:15:00,
2013-02-20 04:30:00,-10.2,-16.0,30.52,WNW,300,0.0,0.0,76,0.00,,,0.00,0,weatherlink.com 1.10,2013-02-20 10:30:00,
2013-02-20 04:45:00,-10.4,-16.0,30.53,WNW,300,0.0,1.0,77,0.00,,,0.00,0,weatherlink.com 1.10,2013-02-20 10:45:00,
2013-02-20 05:01:00,-10.5,-16.0,30.52,WNW,299,0.0,3.0,77,0.00,,,0.00,0,weatherlink.com 1.10,2013-02-20 11:01:00,
2013-02-20 05:16:00,-10.3,-16.0,30.52,NW,304,0.0,4.0,77,0.00,,,0.00,0,weatherlink.com 1.10,2013-02-20 11:16:00,
2013-02-20 05:31:00,-10.3,-16.0,30.52,NW,304,4.0,5.0,77,0.00,,,0.00,0,weatherlink.com 1.10,2013-02-20 11:31:00,
2013-02-20 05:46:00,-10.5,-16.0,30.52,NW,306,0.0,6.0,77,0.00,,,0.00,0,weatherlink.com 1.10,2013-02-20 11:46:00,
2013-02-20 06:01:00,-10.3,-15.0,30.53,NW,309,0.0,5.0,78,0.00,,,0.00,0,weatherlink.com 1.10,2013-02-20 12:01:00,
2013-02-20 06:16:00,-10.4,-16.0,30.53,NW,309,0.0,1.0,77,0.00,,,0.00,0,weatherlink.com 1.10,2013-02-20 12:16:00,
2013-02-20 06:31:00,-10.8,-16.0,30.54,NW,309,0.0,0.0,77,0.00,,,0.00,0,weatherlink.com 1.10,2013-02-20 12:31:00,
2013-02-20 06:46:00,-10.7,-16.0,30.54,NW,309,0.0,0.0,78,0.00,,,0.00,0,weatherlink.com 1.10,2013-02-20 12:46:00,
2013-02-20 07:01:00,-10.6,-16.0,30.53,NW,310,3.0,6.0,78,0.00,,,0.00,0,weatherlink.com 1.10,2013-02-20 13:01:00,
2013-02-20 07:17:00,-10.1,-15.0,30.54,NW,313,3.0,6.0,78,0.00,,,0.00,9,weatherlink.com 1.10,2013-02-20 13:17:00,
2013-02-20 07:31:00,-9.4,-15.0,30.54,NW,314,0.0,4.0,78,0.00,,,0.00,16,weatherlink.com 1.10,2013-02-20 13:31:00,
2013-02-20 07:46:00,-9.0,-14.0,30.54,NW,314,0.0,4.0,79,0.00,,,0.00,23,weatherlink.com 1.10,2013-02-20 13:46:00,
2013-02-20 08:01:00,-8.2,-13.0,30.54,NW,323,0.0,4.0,79,0.00,,,0.00,49,weatherlink.com 1.10,2013-02-20 14:01:00,
2013-02-20 08:17:00,-7.1,-12.0,30.54,NNW,336,0.0,3.0,78,0.00,,,0.00,79,weatherlink.com 1.10,2013-02-20 14:17:00,
2013-02-20 08:32:00,-6.5,-12.0,30.54,NNW,339,0.0,2.0,78,0.00,,,0.00,135,weatherlink.com 1.10,2013-02-20 14:32:00,
2013-02-20 08:47:00,-5.8,-11.0,30.53,NNW,344,1.0,4.0,78,0.00,,,0.00,142,weatherlink.com 1.10,2013-02-20 14:47:00,
2013-02-20 09:02:00,-4.8,-10.0,30.54,NNW,348,0.0,4.0,77,0.00,,,0.00,153,weatherlink.com 1.10,2013-02-20 15:02:00,
2013-02-20 09:17:00,-3.5,-9.0,30.54,NNW,348,0.0,0.0,77,0.00,,,0.00,216,weatherlink.com 1.10,2013-02-20 15:17:00,
2013-02-20 09:32:00,-2.4,-8.0,30.54,NNW,348,0.0,1.0,76,0.00,,,0.00,250,weatherlink.com 1.10,2013-02-20 15:32:00,
2013-02-20 09:47:00,-1.6,-8.0,30.54,North,349,0.0,0.0,75,0.00,,,0.00,401,weatherlink.com 1.10,2013-02-20 15:47:00,
2013-02-20 10:02:00,-0.3,-6.0,30.54,North,350,0.0,1.0,75,0.00,,,0.00,432,weatherlink.com 1.10,2013-02-20 16:02:00,
2013-02-20 10:17:00,1.5,-5.0,30.54,North,349,0.0,0.0,73,0.00,,,0.00,445,weatherlink.com 1.10,2013-02-20 16:17:00,
2013-02-20 10:33:00,2.5,-5.0,30.54,North,349,0.0,0.0,72,0.00,,,0.00,476,weatherlink.com 1.10,2013-02-20 16:33:00,
2013-02-20 10:47:00,3.3,-4.0,30.55,North,350,0.0,0.0,72,0.00,,,0.00,524,weatherlink.com 1.10,2013-02-20 16:47:00,
2013-02-20 11:02:00,3.8,-3.0,30.55,North,350,0.0,0.0,72,0.00,,,0.00,547,weatherlink.com 1.10,2013-02-20 17:02:00,
2013-02-20 11:17:00,4.5,-3.0,30.54,North,350,0.0,0.0,72,0.00,,,0.00,552,weatherlink.com 1.10,2013-02-20 17:17:00,
2013-02-20 11:33:00,5.5,-2.0,30.55,North,349,0.0,0.0,71,0.00,,,0.00,575,weatherlink.com 1.10,2013-02-20 17:33:00,
2013-02-20 11:48:00,6.9,-1.0,30.55,North,350,0.0,0.0,71,0.00,,,0.00,559,weatherlink.com 1.10,2013-02-20 17:48:00,
2013-02-20 12:03:00,7.8,-1.0,30.55,North,350,0.0,0.0,68,0.00,,,0.00,575,weatherlink.com 1.10,2013-02-20 18:03:00,
2013-02-20 12:18:00,8.2,0.0,30.53,North,350,0.0,1.0,69,0.00,,,0.00,617,weatherlink.com 1.10,2013-02-20 18:18:00,
2013-02-20 12:33:00,8.3,0.0,30.53,North,350,0.0,1.0,70,0.00,,,0.00,610,weatherlink.com 1.10,2013-02-20 18:33:00,
2013-02-20 13:03:00,8.5,0.0,30.54,WNW,298,0.0,1.0,69,0.00,,,0.00,547,weatherlink.com 1.10,2013-02-20 19:03:00,
2013-02-20 13:33:00,8.8,1.0,30.54,WNW,303,0.0,1.0,69,0.00,,,0.00,441,weatherlink.com 1.10,2013-02-20 19:33:00,
2013-02-20 13:48:00,8.9,1.0,30.54,WNW,302,0.0,0.0,69,0.00,,,0.00,427,weatherlink.com 1.10,2013-02-20 19:48:00,
2013-02-20 14:03:00,9.3,1.0,30.54,NW,306,0.0,0.0,69,0.00,,,0.00,476,weatherlink.com 1.10,2013-02-20 20:03:00,
2013-02-20 14:18:00,9.9,2.0,30.54,NW,307,0.0,1.0,70,0.00,,,0.00,427,weatherlink.com 1.10,2013-02-20 20:18:00,
2013-02-20 14:33:00,9.7,1.0,30.53,NW,307,0.0,1.0,68,0.00,,,0.00,341,weatherlink.com 1.10,2013-02-20 20:33:00,
2013-02-20 14:48:00,9.7,1.0,30.53,NW,309,0.0,0.0,68,0.00,,,0.00,343,weatherlink.com 1.10,2013-02-20 20:48:00,
2013-02-20 15:04:00,9.9,2.0,30.52,NW,310,0.0,1.0,69,0.00,,,0.00,336,weatherlink.com 1.10,2013-02-20 21:04:00,
2013-02-20 15:19:00,10.1,2.0,30.51,NW,311,0.0,0.0,69,0.00,,,0.00,313,weatherlink.com 1.10,2013-02-20 21:19:00,
2013-02-20 15:34:00,10.6,3.0,30.51,NW,311,0.0,1.0,70,0.00,,,0.00,255,weatherlink.com 1.10,2013-02-20 21:34:00,
2013-02-20 15:49:00,10.7,2.0,30.50,NW,314,0.0,1.0,68,0.00,,,0.00,207,weatherlink.com 1.10,2013-02-20 21:49:00,
2013-02-20 16:04:00,10.8,3.0,30.50,NW,325,0.0,1.0,69,0.00,,,0.00,171,weatherlink.com 1.10,2013-02-20 22:04:00,
2013-02-20 16:19:00,11.0,3.0,30.49,NNW,335,0.0,2.0,69,0.00,,,0.00,151,weatherlink.com 1.10,2013-02-20 22:19:00,
2013-02-20 16:34:00,11.2,3.0,30.49,NNW,344,0.0,1.0,70,0.00,,,0.00,125,weatherlink.com 1.10,2013-02-20 22:34:00,
2013-02-20 16:49:00,11.5,4.0,30.48,NNW,345,0.0,1.0,70,0.00,,,0.00,107,weatherlink.com 1.10,2013-02-20 22:49:00,
2013-02-20 17:04:00,11.7,3.0,30.48,NNW,346,0.0,1.0,69,0.00,,,0.00,79,weatherlink.com 1.10,2013-02-20 23:04:00,
2013-02-20 17:19:00,11.7,4.0,30.48,NNW,346,0.0,0.0,70,0.00,,,0.00,49,weatherlink.com 1.10,2013-02-20 23:19:00,
2013-02-20 17:34:00,11.4,3.0,30.48,NNW,346,0.0,0.0,70,0.00,,,0.00,21,weatherlink.com 1.10,2013-02-20 23:34:00,
2013-02-20 17:49:00,11.1,3.0,30.48,NNW,346,0.0,0.0,71,0.00,,,0.00,0,weatherlink.com 1.10,2013-02-20 23:49:00,
2013-02-20 18:04:00,10.7,3.0,30.48,NNW,346,0.0,0.0,71,0.00,,,0.00,0,weatherlink.com 1.10,2013-02-21 00:04:00,
2013-02-20 18:19:00,10.7,3.0,30.48,NNW,346,0.0,0.0,72,0.00,,,0.00,0,weatherlink.com 1.10,2013-02-21 00:19:00,
2013-02-20 18:35:00,10.9,4.0,30.48,NNW,346,0.0,0.0,72,0.00,,,0.00,0,weatherlink.com 1.10,2013-02-21 00:35:00,
2013-02-20 18:50:00,11.1,4.0,30.48,NNW,346,0.0,0.0,72,0.00,,,0.00,0,weatherlink.com 1.10,2013-02-21 00:50:00,
2013-02-20 19:05:00,11.1,3.0,30.48,NNW,346,0.0,0.0,71,0.00,,,0.00,0,weatherlink.com 1.10,2013-02-21 01:05:00,
2013-02-20 19:20:00,10.8,3.0,30.48,NNW,346,0.0,0.0,71,0.00,,,0.00,0,weatherlink.com 1.10,2013-02-21 01:20:00,
2013-02-20 19:35:00,9.5,3.0,30.49,NNW,346,0.0,0.0,73,0.00,,,0.00,0,weatherlink.com 1.10,2013-02-21 01:35:00,
2013-02-20 19:50:00,9.2,3.0,30.48,NNW,346,0.0,0.0,74,0.00,,,0.00,0,weatherlink.com 1.10,2013-02-21 01:50:00,
2013-02-20 20:05:00,9.1,2.0,30.48,NNW,346,0.0,0.0,74,0.00,,,0.00,0,weatherlink.com 1.10,2013-02-21 02:05:00,
2013-02-20 20:20:00,9.3,3.0,30.48,NNW,346,0.0,0.0,74,0.00,,,0.00,0,weatherlink.com 1.10,2013-02-21 02:20:00,
2013-02-20 20:35:00,9.0,2.0,30.47,NNW,346,0.0,0.0,74,0.00,,,0.00,0,weatherlink.com 1.10,2013-02-21 02:35:00,
2013-02-20 20:50:00,8.7,2.0,30.46,NNW,346,0.0,0.0,74,0.00,,,0.00,0,weatherlink.com 1.10,2013-02-21 02:50:00,
2013-02-20 21:06:00,8.2,2.0,30.46,NNW,346,0.0,0.0,75,0.00,,,0.00,0,weatherlink.com 1.10,2013-02-21 03:06:00,
2013-02-20 21:21:00,7.6,2.0,30.47,NNW,346,0.0,0.0,76,0.00,,,0.00,0,weatherlink.com 1.10,2013-02-21 03:21:00,
2013-02-20 21:35:00,7.6,2.0,30.47,NNW,346,0.0,0.0,77,0.00,,,0.00,0,weatherlink.com 1.10,2013-02-21 03:35:00,
2013-02-20 21:51:00,7.8,2.0,30.48,NNW,346,0.0,0.0,76,0.00,,,0.00,0,weatherlink.com 1.10,2013-02-21 03:51:00,
2013-02-20 22:06:00,8.1,2.0,30.47,NNW,346,0.0,0.0,77,0.00,,,0.00,0,weatherlink.com 1.10,2013-02-21 04:06:00,
2013-02-20 22:21:00,7.3,1.0,30.46,NNW,346,0.0,0.0,76,0.00,,,0.00,0,weatherlink.com 1.10,2013-02-21 04:21:00,
2013-02-20 22:36:00,6.6,1.0,30.46,NNW,346,0.0,0.0,76,0.00,,,0.00,0,weatherlink.com 1.10,2013-02-21 04:36:00,
2013-02-20 22:51:00,7.0,2.0,30.47,NNW,346,0.0,0.0,78,0.00,,,0.00,0,weatherlink.com 1.10,2013-02-21 04:51:00,
2013-02-20 23:06:00,7.5,2.0,30.47,NNW,346,0.0,0.0,78,0.00,,,0.00,0,weatherlink.com 1.10,2013-02-21 05:06:00,
2013-02-20 23:21:00,7.1,1.0,30.47,NNW,346,0.0,0.0,77,0.00,,,0.00,0,weatherlink.com 1.10,2013-02-21 05:21:00,
2013-02-20 23:36:00,6.9,1.0,30.47,NNW,346,0.0,0.0,78,0.00,,,0.00,0,weatherlink.com 1.10,2013-02-21 05:36:00,
2013-02-20 23:51:00,6.3,1.0,30.47,NNW,346,0.0,0.0,78,0.00,,,0.00,0,weatherlink.com 1.10,2013-02-21 05:51:00,